Eckman, North Dakota
Current Conditions -  °F | °C
As of 10:58 AM on Thursday 23 Oct 2014 (Local Time) from KMIB Reporting Station
Clear Clear  
Wind Chill: 55°   Ceiling: Unl
Heat Index: 55°   Visibility: 10mi
Dew Point: 36°   Wind: 10mph
Humidity: 47%   Direction: 230°SW
Pressure: 29.82"   Gusts: NA
Location:  48.7978°N, 101.326°W
Report Text: KMIB 231558Z AUTO 23009KT 10SM CLR 13/02 A2982 RMK AO2 SLP107
Loading
Personal Weather Stations






























Interactive Weather Map
Tropical Storm Tracking
New forecast layout! Learn more

10-Day Weather Forecast

Advertisements
Track Severe Weather on mobile